sensor_id;sensor_type;location;lat;lon;timestamp;pressure;altitude;pressure_sealevel;temperature;humidity
44872;BME280;30602;51.060;17.226;2023-01-23T00:03:13;103248.62;;;0.86;100.00
44872;BME280;30602;51.060;17.226;2023-01-23T00:06:28;103252.72;;;0.89;100.00
44872;BME280;30602;51.060;17.226;2023-01-23T00:09:43;103252.27;;;0.90;100.00
44872;BME280;30602;51.060;17.226;2023-01-23T00:12:57;103253.27;;;0.86;100.00
44872;BME280;30602;51.060;17.226;2023-01-23T00:16:13;103251.34;;;0.82;100.00
44872;BME280;30602;51.060;17.226;2023-01-23T00:19:54;103254.23;;;0.84;100.00
44872;BME280;30602;51.060;17.226;2023-01-23T00:23:04;103248.61;;;0.78;100.00
44872;BME280;30602;51.060;17.226;2023-01-23T00:26:39;103240.16;;;0.72;100.00
44872;BME280;30602;51.060;17.226;2023-01-23T00:29:59;103239.04;;;0.71;100.00
44872;BME280;30602;51.060;17.226;2023-01-23T00:33:08;103244.69;;;0.73;100.00
44872;BME280;30602;51.060;17.226;2023-01-23T00:36:35;103255.21;;;0.68;100.00
44872;BME280;30602;51.060;17.226;2023-01-23T00:40:08;103268.58;;;0.68;100.00
44872;BME280;30602;51.060;17.226;2023-01-23T00:43:23;103273.78;;;0.74;100.00
44872;BME280;30602;51.060;17.226;2023-01-23T00:46:46;103278.20;;;0.74;100.00
44872;BME280;30602;51.060;17.226;2023-01-23T00:49:54;103283.66;;;0.72;100.00
44872;BME280;30602;51.060;17.226;2023-01-23T00:53:51;103283.68;;;0.70;100.00
44872;BME280;30602;51.060;17.226;2023-01-23T00:57:08;103292.21;;;0.74;100.00
44872;BME280;30602;51.060;17.226;2023-01-23T01:00:29;103290.39;;;0.75;100.00
44872;BME280;30602;51.060;17.226;2023-01-23T01:04:10;103297.41;;;0.87;100.00
44872;BME280;30602;51.060;17.226;2023-01-23T01:08:07;103296.73;;;0.81;100.00
44872;BME280;30602;51.060;17.226;2023-01-23T01:11:23;103292.95;;;0.80;100.00
44872;BME280;30602;51.060;17.226;2023-01-23T01:15:10;103283.27;;;0.75;100.00
44872;BME280;30602;51.060;17.226;2023-01-23T01:18:55;103287.72;;;0.69;100.00
44872;BME280;30602;51.060;17.226;2023-01-23T01:22:33;103291.93;;;0.70;100.00
44872;BME280;30602;51.060;17.226;2023-01-23T01:26:14;103295.03;;;0.72;100.00
44872;BME280;30602;51.060;17.226;2023-01-23T01:30:21;103299.50;;;0.72;100.00
44872;BME280;30602;51.060;17.226;2023-01-23T01:33:42;103292.25;;;0.68;100.00
44872;BME280;30602;51.060;17.226;2023-01-23T01:36:53;103296.45;;;0.68;100.00
44872;BME280;30602;51.060;17.226;2023-01-23T01:40:16;103295.97;;;0.68;100.00
44872;BME280;30602;51.060;17.226;2023-01-23T01:43:28;103293.48;;;0.63;100.00
44872;BME280;30602;51.060;17.226;2023-01-23T01:46:47;103303.82;;;0.63;100.00
44872;BME280;30602;51.060;17.226;2023-01-23T01:51:00;103320.45;;;0.67;100.00
44872;BME280;30602;51.060;17.226;2023-01-23T01:54:25;103325.94;;;0.67;100.00
44872;BME280;30602;51.060;17.226;2023-01-23T01:57:50;103331.91;;;0.69;100.00
44872;BME280;30602;51.060;17.226;2023-01-23T02:01:28;103337.98;;;0.67;100.00
44872;BME280;30602;51.060;17.226;2023-01-23T02:05:15;103341.56;;;0.74;100.00
44872;BME280;30602;51.060;17.226;2023-01-23T02:08:43;103343.55;;;0.82;100.00
44872;BME280;30602;51.060;17.226;2023-01-23T02:12:20;103347.64;;;0.80;100.00
44872;BME280;30602;51.060;17.226;2023-01-23T02:15:41;103343.27;;;0.76;100.00
44872;BME280;30602;51.060;17.226;2023-01-23T02:23:02;103346.00;;;0.73;100.00
44872;BME280;30602;51.060;17.226;2023-01-23T02:26:50;103335.28;;;0.58;100.00
44872;BME280;30602;51.060;17.226;2023-01-23T02:30:35;103366.56;;;0.79;100.00
44872;BME280;30602;51.060;17.226;2023-01-23T02:33:53;103368.97;;;0.78;100.00
44872;BME280;30602;51.060;17.226;2023-01-23T02:37:01;103374.12;;;0.76;100.00
44872;BME280;30602;51.060;17.226;2023-01-23T02:47:57;103373.72;;;0.70;100.00
44872;BME280;30602;51.060;17.226;2023-01-23T02:51:16;103377.02;;;0.70;100.00
44872;BME280;30602;51.060;17.226;2023-01-23T02:54:51;103379.45;;;0.68;100.00
44872;BME280;30602;51.060;17.226;2023-01-23T02:58:06;103380.01;;;0.61;100.00
44872;BME280;30602;51.060;17.226;2023-01-23T03:01:30;103375.74;;;0.64;100.00
44872;BME280;30602;51.060;17.226;2023-01-23T03:04:52;103376.83;;;0.71;100.00
44872;BME280;30602;51.060;17.226;2023-01-23T03:08:01;103378.70;;;0.75;100.00
44872;BME280;30602;51.060;17.226;2023-01-23T03:11:46;103385.44;;;0.77;100.00
44872;BME280;30602;51.060;17.226;2023-01-23T03:14:59;103385.00;;;0.77;100.00
44872;BME280;30602;51.060;17.226;2023-01-23T03:18:43;103385.14;;;0.69;100.00
44872;BME280;30602;51.060;17.226;2023-01-23T03:21:56;103384.74;;;0.72;100.00
44872;BME280;30602;51.060;17.226;2023-01-23T03:25:13;103391.52;;;0.75;100.00
44872;BME280;30602;51.060;17.226;2023-01-23T03:28:26;103390.38;;;0.75;100.00
44872;BME280;30602;51.060;17.226;2023-01-23T03:32:38;103394.99;;;0.81;100.00
44872;BME280;30602;51.060;17.226;2023-01-23T03:35:51;103388.66;;;0.79;100.00
44872;BME280;30602;51.060;17.226;2023-01-23T03:39:30;103384.66;;;0.78;100.00
44872;BME280;30602;51.060;17.226;2023-01-23T03:42:54;103395.44;;;0.78;100.00
44872;BME280;30602;51.060;17.226;2023-01-23T03:46:49;103401.13;;;0.76;100.00
44872;BME280;30602;51.060;17.226;2023-01-23T03:50:26;103398.76;;;0.73;100.00
44872;BME280;30602;51.060;17.226;2023-01-23T03:54:03;103406.46;;;0.78;100.00
44872;BME280;30602;51.060;17.226;2023-01-23T03:57:35;103410.59;;;0.76;100.00
44872;BME280;30602;51.060;17.226;2023-01-23T04:00:56;103404.34;;;0.77;100.00
44872;BME280;30602;51.060;17.226;2023-01-23T04:04:47;103403.37;;;0.85;100.00
44872;BME280;30602;51.060;17.226;2023-01-23T04:08:35;103398.48;;;0.90;100.00
44872;BME280;30602;51.060;17.226;2023-01-23T04:11:57;103389.99;;;0.81;100.00
44872;BME280;30602;51.060;17.226;2023-01-23T04:15:32;103401.49;;;0.91;100.00
44872;BME280;30602;51.060;17.226;2023-01-23T04:18:45;103402.97;;;0.88;100.00
44872;BME280;30602;51.060;17.226;2023-01-23T04:22:34;103408.81;;;0.87;100.00
44872;BME280;30602;51.060;17.226;2023-01-23T04:25:53;103404.78;;;0.85;100.00
44872;BME280;30602;51.060;17.226;2023-01-23T04:29:34;103402.65;;;0.78;100.00
44872;BME280;30602;51.060;17.226;2023-01-23T04:32:54;103400.91;;;0.81;100.00
44872;BME280;30602;51.060;17.226;2023-01-23T04:36:44;103398.70;;;0.81;100.00
44872;BME280;30602;51.060;17.226;2023-01-23T04:40:02;103401.63;;;0.77;100.00
44872;BME280;30602;51.060;17.226;2023-01-23T04:43:27;103400.96;;;0.76;100.00
44872;BME280;30602;51.060;17.226;2023-01-23T04:47:14;103400.98;;;0.75;100.00
44872;BME280;30602;51.060;17.226;2023-01-23T04:51:22;103405.04;;;0.75;100.00
44872;BME280;30602;51.060;17.226;2023-01-23T04:55:07;103411.68;;;0.74;100.00
44872;BME280;30602;51.060;17.226;2023-01-23T04:58:16;103414.58;;;0.75;100.00
44872;BME280;30602;51.060;17.226;2023-01-23T05:01:32;103418.41;;;0.74;100.00
44872;BME280;30602;51.060;17.226;2023-01-23T05:04:48;103424.34;;;0.74;100.00
44872;BME280;30602;51.060;17.226;2023-01-23T05:08:36;103434.33;;;0.78;100.00
44872;BME280;30602;51.060;17.226;2023-01-23T05:12:05;103438.27;;;0.84;100.00
44872;BME280;30602;51.060;17.226;2023-01-23T05:15:19;103435.79;;;0.83;100.00
44872;BME280;30602;51.060;17.226;2023-01-23T05:19:07;103438.17;;;0.82;100.00
44872;BME280;30602;51.060;17.226;2023-01-23T05:22:24;103436.29;;;0.76;100.00
44872;BME280;30602;51.060;17.226;2023-01-23T05:26:28;103449.29;;;0.81;100.00
44872;BME280;30602;51.060;17.226;2023-01-23T05:29:39;103458.50;;;0.79;100.00
44872;BME280;30602;51.060;17.226;2023-01-23T05:32:58;103465.82;;;0.79;100.00
44872;BME280;30602;51.060;17.226;2023-01-23T05:36:15;103468.53;;;0.78;100.00
44872;BME280;30602;51.060;17.226;2023-01-23T05:39:53;103470.01;;;0.76;100.00
44872;BME280;30602;51.060;17.226;2023-01-23T05:43:14;103476.41;;;0.74;100.00
44872;BME280;30602;51.060;17.226;2023-01-23T05:46:43;103475.80;;;0.69;100.00
44872;BME280;30602;51.060;17.226;2023-01-23T05:54:11;103485.14;;;0.75;100.00
44872;BME280;30602;51.060;17.226;2023-01-23T05:57:40;103487.83;;;0.72;100.00
44872;BME280;30602;51.060;17.226;2023-01-23T06:01:05;103484.05;;;0.62;100.00
44872;BME280;30602;51.060;17.226;2023-01-23T06:04:48;103491.65;;;0.69;100.00
44872;BME280;30602;51.060;17.226;2023-01-23T06:07:58;103493.01;;;0.64;100.00
44872;BME280;30602;51.060;17.226;2023-01-23T06:11:16;103498.78;;;0.69;100.00
44872;BME280;30602;51.060;17.226;2023-01-23T06:14:27;103498.16;;;0.79;100.00
44872;BME280;30602;51.060;17.226;2023-01-23T06:18:14;103501.83;;;0.79;100.00
44872;BME280;30602;51.060;17.226;2023-01-23T06:22:00;103502.98;;;0.76;100.00
44872;BME280;30602;51.060;17.226;2023-01-23T06:25:32;103518.80;;;0.78;100.00
44872;BME280;30602;51.060;17.226;2023-01-23T06:29:10;103504.10;;;0.75;100.00
44872;BME280;30602;51.060;17.226;2023-01-23T06:33:04;103526.16;;;0.83;100.00
44872;BME280;30602;51.060;17.226;2023-01-23T06:36:18;103532.58;;;0.85;100.00
44872;BME280;30602;51.060;17.226;2023-01-23T06:39:58;103541.95;;;0.87;100.00
44872;BME280;30602;51.060;17.226;2023-01-23T06:43:43;103551.91;;;0.84;100.00
44872;BME280;30602;51.060;17.226;2023-01-23T06:47:29;103557.40;;;0.84;100.00
44872;BME280;30602;51.060;17.226;2023-01-23T06:51:03;103557.86;;;0.77;100.00
44872;BME280;30602;51.060;17.226;2023-01-23T06:54:36;103568.98;;;0.81;100.00
44872;BME280;30602;51.060;17.226;2023-01-23T06:57:48;103574.94;;;0.82;100.00
44872;BME280;30602;51.060;17.226;2023-01-23T07:01:14;103562.73;;;0.71;100.00
44872;BME280;30602;51.060;17.226;2023-01-23T07:04:42;103575.54;;;0.77;100.00
44872;BME280;30602;51.060;17.226;2023-01-23T07:08:16;103583.16;;;0.83;100.00
44872;BME280;30602;51.060;17.226;2023-01-23T07:11:30;103578.42;;;0.88;100.00
44872;BME280;30602;51.060;17.226;2023-01-23T07:15:02;103584.45;;;0.87;100.00
44872;BME280;30602;51.060;17.226;2023-01-23T07:18:16;103586.84;;;0.96;100.00
44872;BME280;30602;51.060;17.226;2023-01-23T07:21:26;103590.65;;;0.88;100.00
44872;BME280;30602;51.060;17.226;2023-01-23T07:24:52;103593.51;;;0.88;100.00
44872;BME280;30602;51.060;17.226;2023-01-23T07:28:07;103597.84;;;0.88;100.00
44872;BME280;30602;51.060;17.226;2023-01-23T07:31:41;103600.82;;;0.89;100.00
44872;BME280;30602;51.060;17.226;2023-01-23T07:34:55;103602.50;;;0.89;100.00
44872;BME280;30602;51.060;17.226;2023-01-23T07:38:12;103609.02;;;0.89;100.00
44872;BME280;30602;51.060;17.226;2023-01-23T07:41:29;103615.00;;;0.89;100.00
44872;BME280;30602;51.060;17.226;2023-01-23T07:44:40;103606.82;;;0.88;100.00
44872;BME280;30602;51.060;17.226;2023-01-23T07:47:55;103608.22;;;0.86;100.00
44872;BME280;30602;51.060;17.226;2023-01-23T07:51:27;103614.08;;;0.87;100.00
44872;BME280;30602;51.060;17.226;2023-01-23T07:55:00;103616.75;;;0.89;100.00
44872;BME280;30602;51.060;17.226;2023-01-23T07:58:15;103605.97;;;0.79;100.00
44872;BME280;30602;51.060;17.226;2023-01-23T08:01:32;103615.98;;;0.83;100.00
44872;BME280;30602;51.060;17.226;2023-01-23T08:04:45;103614.28;;;0.80;100.00
44872;BME280;30602;51.060;17.226;2023-01-23T08:07:55;103616.06;;;0.87;100.00
44872;BME280;30602;51.060;17.226;2023-01-23T08:11:36;103610.73;;;0.87;100.00
44872;BME280;30602;51.060;17.226;2023-01-23T08:14:54;103617.62;;;0.96;100.00
44872;BME280;30602;51.060;17.226;2023-01-23T08:18:41;103621.95;;;0.89;100.00
44872;BME280;30602;51.060;17.226;2023-01-23T08:21:55;103628.43;;;0.99;100.00
44872;BME280;30602;51.060;17.226;2023-01-23T08:25:19;103631.04;;;0.97;100.00
44872;BME280;30602;51.060;17.226;2023-01-23T08:28:44;103601.20;;;0.77;100.00
44872;BME280;30602;51.060;17.226;2023-01-23T08:32:21;103631.91;;;0.88;100.00
44872;BME280;30602;51.060;17.226;2023-01-23T08:35:27;103630.69;;;0.96;100.00
44872;BME280;30602;51.060;17.226;2023-01-23T08:38:40;103625.16;;;0.97;100.00
44872;BME280;30602;51.060;17.226;2023-01-23T08:41:59;103623.16;;;0.96;100.00
44872;BME280;30602;51.060;17.226;2023-01-23T08:45:28;103629.45;;;0.98;100.00
44872;BME280;30602;51.060;17.226;2023-01-23T08:49:02;103630.56;;;0.98;100.00
44872;BME280;30602;51.060;17.226;2023-01-23T08:52:38;103635.42;;;0.96;100.00
44872;BME280;30602;51.060;17.226;2023-01-23T08:56:18;103632.45;;;0.91;100.00
44872;BME280;30602;51.060;17.226;2023-01-23T08:59:36;103636.09;;;0.92;100.00
44872;BME280;30602;51.060;17.226;2023-01-23T09:02:46;103641.76;;;0.88;100.00
44872;BME280;30602;51.060;17.226;2023-01-23T09:06:27;103647.01;;;0.91;100.00
44872;BME280;30602;51.060;17.226;2023-01-23T09:09:58;103645.88;;;1.01;100.00
44872;BME280;30602;51.060;17.226;2023-01-23T09:13:13;103640.22;;;1.14;100.00
44872;BME280;30602;51.060;17.226;2023-01-23T09:17:01;103646.34;;;1.11;100.00
44872;BME280;30602;51.060;17.226;2023-01-23T09:20:32;103646.57;;;1.16;100.00
44872;BME280;30602;51.060;17.226;2023-01-23T09:23:55;103642.04;;;1.15;100.00
44872;BME280;30602;51.060;17.226;2023-01-23T09:27:33;103631.71;;;0.99;100.00
44872;BME280;30602;51.060;17.226;2023-01-23T09:30:52;103653.03;;;1.07;100.00
44872;BME280;30602;51.060;17.226;2023-01-23T09:34:18;103657.10;;;1.04;100.00
44872;BME280;30602;51.060;17.226;2023-01-23T09:37:46;103637.68;;;0.97;100.00
44872;BME280;30602;51.060;17.226;2023-01-23T09:41:20;103652.22;;;1.10;100.00
44872;BME280;30602;51.060;17.226;2023-01-23T09:44:51;103634.45;;;1.03;100.00
44872;BME280;30602;51.060;17.226;2023-01-23T09:52:19;103646.94;;;1.09;100.00
44872;BME280;30602;51.060;17.226;2023-01-23T09:56:05;103651.33;;;1.18;100.00
44872;BME280;30602;51.060;17.226;2023-01-23T10:02:43;103650.33;;;1.00;100.00
44872;BME280;30602;51.060;17.226;2023-01-23T10:06:12;103648.28;;;1.04;100.00
44872;BME280;30602;51.060;17.226;2023-01-23T10:28:28;103643.41;;;1.16;100.00
44872;BME280;30602;51.060;17.226;2023-01-23T10:31:52;103635.87;;;1.23;100.00
44872;BME280;30602;51.060;17.226;2023-01-23T10:39:11;103630.26;;;1.23;100.00
44872;BME280;30602;51.060;17.226;2023-01-23T10:42:49;103634.12;;;1.18;100.00
44872;BME280;30602;51.060;17.226;2023-01-23T10:46:11;103628.99;;;1.16;100.00
44872;BME280;30602;51.060;17.226;2023-01-23T10:49:46;103626.66;;;1.19;100.00
44872;BME280;30602;51.060;17.226;2023-01-23T10:53:14;103627.66;;;1.21;100.00
44872;BME280;30602;51.060;17.226;2023-01-23T11:03:44;103621.84;;;1.23;100.00
44872;BME280;30602;51.060;17.226;2023-01-23T11:07:05;103620.41;;;1.26;100.00
44872;BME280;30602;51.060;17.226;2023-01-23T11:10:47;103620.64;;;1.34;100.00
44872;BME280;30602;51.060;17.226;2023-01-23T11:14:06;103618.43;;;1.42;100.00
44872;BME280;30602;51.060;17.226;2023-01-23T11:17:23;103611.35;;;1.34;100.00
44872;BME280;30602;51.060;17.226;2023-01-23T11:20:54;103606.45;;;1.33;100.00
44872;BME280;30602;51.060;17.226;2023-01-23T11:27:28;103601.35;;;1.24;100.00
44872;BME280;30602;51.060;17.226;2023-01-23T11:30:56;103594.38;;;1.26;100.00
44872;BME280;30602;51.060;17.226;2023-01-23T11:38:21;103594.83;;;1.35;100.00
44872;BME280;30602;51.060;17.226;2023-01-23T11:41:51;103596.77;;;1.35;100.00
44872;BME280;30602;51.060;17.226;2023-01-23T11:48:51;103601.49;;;1.29;100.00
44872;BME280;30602;51.060;17.226;2023-01-23T12:07:25;103599.01;;;1.32;100.00
44872;BME280;30602;51.060;17.226;2023-01-23T12:11:09;103594.99;;;1.39;100.00
44872;BME280;30602;51.060;17.226;2023-01-23T12:33:18;103581.69;;;1.44;100.00
44872;BME280;30602;51.060;17.226;2023-01-23T12:44:16;103579.56;;;1.48;100.00
44872;BME280;30602;51.060;17.226;2023-01-23T12:51:05;103577.59;;;1.43;100.00
44872;BME280;30602;51.060;17.226;2023-01-23T12:54:38;103579.80;;;1.38;100.00
44872;BME280;30602;51.060;17.226;2023-01-23T12:58:25;103581.80;;;1.37;100.00
44872;BME280;30602;51.060;17.226;2023-01-23T13:09:55;103581.62;;;1.55;100.00
44872;BME280;30602;51.060;17.226;2023-01-23T13:13:07;103581.04;;;1.49;100.00
44872;BME280;30602;51.060;17.226;2023-01-23T13:16:27;103589.49;;;1.44;100.00
44872;BME280;30602;51.060;17.226;2023-01-23T13:19:41;103582.47;;;1.41;100.00
44872;BME280;30602;51.060;17.226;2023-01-23T13:26:49;103591.48;;;1.49;100.00
44872;BME280;30602;51.060;17.226;2023-01-23T13:38:32;103593.45;;;1.37;100.00
44872;BME280;30602;51.060;17.226;2023-01-23T13:45:47;103602.11;;;1.37;100.00
44872;BME280;30602;51.060;17.226;2023-01-23T13:52:52;103601.61;;;1.43;100.00
44872;BME280;30602;51.060;17.226;2023-01-23T13:56:22;103604.06;;;1.44;100.00
44872;BME280;30602;51.060;17.226;2023-01-23T14:04:21;103591.95;;;1.31;100.00
44872;BME280;30602;51.060;17.226;2023-01-23T14:07:48;103609.55;;;1.48;100.00
44872;BME280;30602;51.060;17.226;2023-01-23T14:11:15;103611.65;;;1.58;100.00
44872;BME280;30602;51.060;17.226;2023-01-23T14:14:49;103609.75;;;1.57;100.00
44872;BME280;30602;51.060;17.226;2023-01-23T14:22:11;103615.00;;;1.51;100.00
44872;BME280;30602;51.060;17.226;2023-01-23T14:25:21;103623.59;;;1.50;100.00
44872;BME280;30602;51.060;17.226;2023-01-23T14:32:18;103631.47;;;1.50;100.00
44872;BME280;30602;51.060;17.226;2023-01-23T14:35:30;103631.30;;;1.46;100.00
44872;BME280;30602;51.060;17.226;2023-01-23T14:38:47;103629.41;;;1.37;100.00
44872;BME280;30602;51.060;17.226;2023-01-23T14:42:04;103627.09;;;1.39;100.00
44872;BME280;30602;51.060;17.226;2023-01-23T14:45:15;103625.87;;;1.40;100.00
44872;BME280;30602;51.060;17.226;2023-01-23T14:49:01;103624.01;;;1.36;100.00
44872;BME280;30602;51.060;17.226;2023-01-23T14:52:29;103630.41;;;1.38;100.00
44872;BME280;30602;51.060;17.226;2023-01-23T14:56:35;103627.77;;;1.36;100.00
44872;BME280;30602;51.060;17.226;2023-01-23T15:00:27;103628.76;;;1.44;100.00
44872;BME280;30602;51.060;17.226;2023-01-23T15:03:42;103629.25;;;1.49;100.00
44872;BME280;30602;51.060;17.226;2023-01-23T15:11:26;103621.75;;;1.44;100.00
44872;BME280;30602;51.060;17.226;2023-01-23T15:14:55;103635.81;;;1.44;100.00
44872;BME280;30602;51.060;17.226;2023-01-23T15:18:27;103640.93;;;1.38;100.00
44872;BME280;30602;51.060;17.226;2023-01-23T15:22:27;103631.60;;;1.28;100.00
44872;BME280;30602;51.060;17.226;2023-01-23T15:25:40;103639.02;;;1.32;100.00
44872;BME280;30602;51.060;17.226;2023-01-23T15:28:57;103636.33;;;1.32;100.00
44872;BME280;30602;51.060;17.226;2023-01-23T15:32:19;103639.60;;;1.32;100.00
44872;BME280;30602;51.060;17.226;2023-01-23T15:36:06;103644.73;;;1.29;100.00
44872;BME280;30602;51.060;17.226;2023-01-23T15:39:47;103649.63;;;1.29;100.00
44872;BME280;30602;51.060;17.226;2023-01-23T15:46:25;103644.05;;;1.28;100.00
44872;BME280;30602;51.060;17.226;2023-01-23T15:49:41;103648.98;;;1.31;100.00
44872;BME280;30602;51.060;17.226;2023-01-23T15:52:58;103648.95;;;1.26;100.00
44872;BME280;30602;51.060;17.226;2023-01-23T15:56:41;103651.02;;;1.32;100.00
44872;BME280;30602;51.060;17.226;2023-01-23T15:59:54;103641.67;;;1.36;100.00
44872;BME280;30602;51.060;17.226;2023-01-23T16:03:29;103645.63;;;1.39;100.00
44872;BME280;30602;51.060;17.226;2023-01-23T16:06:39;103637.06;;;1.28;100.00
44872;BME280;30602;51.060;17.226;2023-01-23T16:10:16;103648.52;;;1.28;100.00
44872;BME280;30602;51.060;17.226;2023-01-23T16:13:58;103624.78;;;1.08;100.00
44872;BME280;30602;51.060;17.226;2023-01-23T16:17:26;103651.55;;;1.23;100.00
44872;BME280;30602;51.060;17.226;2023-01-23T16:20:45;103655.60;;;1.17;100.00
44872;BME280;30602;51.060;17.226;2023-01-23T16:24:23;103657.05;;;1.18;100.00
44872;BME280;30602;51.060;17.226;2023-01-23T16:28:15;103655.51;;;1.09;100.00
44872;BME280;30602;51.060;17.226;2023-01-23T16:31:35;103659.64;;;1.12;100.00
44872;BME280;30602;51.060;17.226;2023-01-23T16:35:06;103661.39;;;1.05;100.00
44872;BME280;30602;51.060;17.226;2023-01-23T16:38:50;103665.43;;;1.01;100.00
44872;BME280;30602;51.060;17.226;2023-01-23T16:42:52;103671.95;;;1.03;100.00
44872;BME280;30602;51.060;17.226;2023-01-23T16:46:25;103678.55;;;1.03;100.00
44872;BME280;30602;51.060;17.226;2023-01-23T16:49:40;103675.93;;;0.99;100.00
44872;BME280;30602;51.060;17.226;2023-01-23T16:53:34;103680.27;;;0.95;100.00
44872;BME280;30602;51.060;17.226;2023-01-23T16:56:47;103679.14;;;0.95;100.00
44872;BME280;30602;51.060;17.226;2023-01-23T17:00:46;103682.24;;;0.98;100.00
44872;BME280;30602;51.060;17.226;2023-01-23T17:04:17;103679.65;;;1.04;100.00
44872;BME280;30602;51.060;17.226;2023-01-23T17:07:48;103675.88;;;0.96;100.00
44872;BME280;30602;51.060;17.226;2023-01-23T17:11:29;103677.78;;;1.00;100.00
44872;BME280;30602;51.060;17.226;2023-01-23T17:14:52;103676.65;;;0.93;100.00
44872;BME280;30602;51.060;17.226;2023-01-23T17:18:04;103677.19;;;0.95;100.00
44872;BME280;30602;51.060;17.226;2023-01-23T17:21:46;103682.57;;;0.93;100.00
44872;BME280;30602;51.060;17.226;2023-01-23T17:25:27;103682.74;;;0.95;100.00
44872;BME280;30602;51.060;17.226;2023-01-23T17:29:51;103683.02;;;0.97;100.00
44872;BME280;30602;51.060;17.226;2023-01-23T17:33:30;103685.17;;;0.97;100.00
44872;BME280;30602;51.060;17.226;2023-01-23T17:37:16;103693.77;;;0.97;100.00
44872;BME280;30602;51.060;17.226;2023-01-23T17:40:34;103693.60;;;0.95;100.00
44872;BME280;30602;51.060;17.226;2023-01-23T17:43:53;103694.19;;;0.89;100.00
44872;BME280;30602;51.060;17.226;2023-01-23T17:47:18;103689.52;;;0.92;100.00
44872;BME280;30602;51.060;17.226;2023-01-23T17:50:56;103691.03;;;0.88;100.00
44872;BME280;30602;51.060;17.226;2023-01-23T17:54:35;103685.00;;;0.83;100.00
44872;BME280;30602;51.060;17.226;2023-01-23T17:58:18;103696.52;;;0.96;100.00
44872;BME280;30602;51.060;17.226;2023-01-23T18:01:29;103698.33;;;1.00;100.00
44872;BME280;30602;51.060;17.226;2023-01-23T18:04:40;103698.37;;;1.01;100.00
44872;BME280;30602;51.060;17.226;2023-01-23T18:07:59;103701.02;;;1.01;100.00
44872;BME280;30602;51.060;17.226;2023-01-23T18:11:22;103704.15;;;1.08;100.00
44872;BME280;30602;51.060;17.226;2023-01-23T18:15:20;103699.67;;;1.15;100.00
44872;BME280;30602;51.060;17.226;2023-01-23T18:18:37;103703.97;;;1.14;100.00
44872;BME280;30602;51.060;17.226;2023-01-23T18:22:30;103705.88;;;1.12;100.00
44872;BME280;30602;51.060;17.226;2023-01-23T18:25:45;103710.87;;;1.03;100.00
44872;BME280;30602;51.060;17.226;2023-01-23T18:46:52;103706.75;;;0.95;100.00
44872;BME280;30602;51.060;17.226;2023-01-23T18:50:34;103712.13;;;0.97;100.00
44872;BME280;30602;51.060;17.226;2023-01-23T18:54:02;103710.31;;;1.00;100.00
44872;BME280;30602;51.060;17.226;2023-01-23T19:04:28;103711.29;;;0.98;100.00
44872;BME280;30602;51.060;17.226;2023-01-23T19:07:59;103710.53;;;1.02;100.00
44872;BME280;30602;51.060;17.226;2023-01-23T19:26:16;103705.97;;;1.00;100.00
44872;BME280;30602;51.060;17.226;2023-01-23T19:30:20;103704.76;;;0.96;100.00
44872;BME280;30602;51.060;17.226;2023-01-23T19:33:35;103703.56;;;0.99;100.00
44872;BME280;30602;51.060;17.226;2023-01-23T19:37:11;103706.34;;;0.98;100.00
44872;BME280;30602;51.060;17.226;2023-01-23T19:40:24;103708.79;;;0.94;100.00
44872;BME280;30602;51.060;17.226;2023-01-23T19:43:54;103709.98;;;0.95;100.00
44872;BME280;30602;51.060;17.226;2023-01-23T19:47:33;103710.33;;;0.94;100.00
44872;BME280;30602;51.060;17.226;2023-01-23T19:50:51;103705.04;;;0.97;100.00
44872;BME280;30602;51.060;17.226;2023-01-23T19:54:10;103702.37;;;0.98;100.00
44872;BME280;30602;51.060;17.226;2023-01-23T19:57:32;103692.73;;;0.89;100.00
44872;BME280;30602;51.060;17.226;2023-01-23T20:05:16;103694.91;;;0.91;100.00
44872;BME280;30602;51.060;17.226;2023-01-23T20:08:26;103665.86;;;0.72;100.00
44872;BME280;30602;51.060;17.226;2023-01-23T20:11:57;103693.64;;;0.93;100.00
44872;BME280;30602;51.060;17.226;2023-01-23T20:15:14;103691.45;;;0.90;100.00
44872;BME280;30602;51.060;17.226;2023-01-23T20:18:26;103693.57;;;0.89;100.00
44872;BME280;30602;51.060;17.226;2023-01-23T20:21:45;103698.79;;;0.94;100.00
44872;BME280;30602;51.060;17.226;2023-01-23T20:25:30;103691.76;;;1.00;100.00
44872;BME280;30602;51.060;17.226;2023-01-23T20:28:48;103698.59;;;1.06;100.00
44872;BME280;30602;51.060;17.226;2023-01-23T20:32:01;103693.86;;;1.01;100.00
44872;BME280;30602;51.060;17.226;2023-01-23T20:35:44;103701.41;;;1.07;100.00
44872;BME280;30602;51.060;17.226;2023-01-23T20:39:31;103698.29;;;0.96;100.00
44872;BME280;30602;51.060;17.226;2023-01-23T20:43:10;103698.33;;;0.93;100.00
44872;BME280;30602;51.060;17.226;2023-01-23T20:46:18;103696.86;;;0.95;100.00
44872;BME280;30602;51.060;17.226;2023-01-23T20:49:42;103694.32;;;0.95;100.00
44872;BME280;30602;51.060;17.226;2023-01-23T20:53:17;103677.37;;;0.88;100.00
44872;BME280;30602;51.060;17.226;2023-01-23T20:56:46;103696.68;;;0.97;100.00
44872;BME280;30602;51.060;17.226;2023-01-23T21:00:16;103703.04;;;0.98;100.00
44872;BME280;30602;51.060;17.226;2023-01-23T21:03:45;103713.43;;;0.98;100.00
44872;BME280;30602;51.060;17.226;2023-01-23T21:07:03;103700.80;;;0.91;100.00
44872;BME280;30602;51.060;17.226;2023-01-23T21:11:15;103715.87;;;0.96;100.00
44872;BME280;30602;51.060;17.226;2023-01-23T21:14:45;103713.13;;;0.99;100.00
44872;BME280;30602;51.060;17.226;2023-01-23T21:17:56;103703.71;;;0.95;100.00